Sinegorsk — YJRC5 — position and weather

sailwx.info

Track history (hours):
 
Tides and Currents Weather Stations Pressure Air Temp Water Temp Dewpoint Dewpoint Depression Visibility Wind Speed Wind Dir Waves Ship Positions

Sinegorsk

Last reported at 2014-Jul-29 22:31 UTC. Time now 2014-Jul-30 09:16 UTC.
Position N 32°10' E 027°16'.

Length 133 m; draft 8.2 m.

Type: Cargo ship. MMSI: 576292000.

Date/timePositionNaut miles runAvg speedWind from/ knotsBaromVisibWave heightAir tempDewpointWater temp
2014-Jul-29 22:31N 32°10' E 027°16'1010.1
2014-Jul-29 21:29N 32°14' E 027°05'1110.0
2014-Jul-29 20:22N 32°18' E 026°52'810.2
2014-Jul-29 19:33N 32°21' E 026°43'12 9.9
2014-Jul-29 18:21N 32°26' E 026°30'810.0
2014-Jul-29 17:32N 32°29' E 026°21'1010.2
2014-Jul-29 16:33N 32°33' E 026°10'1310.5
2014-Jul-29 15:20N 32°38' E 025°57'2310.7
2014-Jul-29 13:11N 32°47' E 025°32'2110.5
2014-Jul-29 11:12N 32°56' E 025°09'1911.0
2014-Jul-29 09:28N 33°03' E 024°48'18410.7
2014-Jul-28 16:15N 34°14' E 021°25'315 9.8
2014-Jul-27 08:06N 36°02' E 015°23'5 9.8
2014-Jul-27 07:33N 36°04' E 015°17'10 9.8
2014-Jul-27 06:33N 36°07' E 015°05'1110.3
2014-Jul-27 05:32N 36°11' E 014°53'1010.6
2014-Jul-27 04:33N 36°14' E 014°41'1110.5
2014-Jul-27 03:33N 36°18' E 014°29'1010.4
2014-Jul-27 02:33N 36°21' E 014°17'1110.3
2014-Jul-27 01:31N 36°25' E 014°04'1010.4
2014-Jul-27 00:32N 36°29' E 013°52'1210.4
2014-Jul-26 23:24N 36°33' E 013°38'2010.6
2014-Jul-26 21:33N 36°39' E 013°15'3411.2
2014-Jul-26 18:30N 36°52' E 012°36'1011.1
2014-Jul-26 17:33N 36°56' E 012°24'1210.8
2014-Jul-26 16:25N 37°01' E 012°10'7210.5
2014-Jul-26 09:32N 37°27' E 010°46'1611.1
2014-Jul-26 08:06N 37°31' E 010°26'3411.2
2014-Jul-26 05:04N 37°31' E 009°43'510.7
2014-Jul-26 04:33N 37°29' E 009°37'1110.6
2014-Jul-26 03:29N 37°26' E 009°23'1010.7
2014-Jul-26 02:33N 37°24' E 009°11'4210.5
2014-Jul-25 22:33N 37°18' E 008°18'1110.6
2014-Jul-25 21:33N 37°18' E 008°05'2210.5
2014-Jul-25 19:25N 37°18' E 007°37'2010.5
2014-Jul-25 17:33N 37°17' E 007°12'1410.1
2014-Jul-25 16:09N 37°18' E 006°54'610.0
2014-Jul-25 15:33N 37°18' E 006°47'2310.5
2014-Jul-25 13:23N 37°17' E 006°18'1111.0
2014-Jul-25 12:21N 37°17' E 006°04'911.3
2014-Jul-25 11:33N 37°16' E 005°52'6810.9
2014-Jul-25 05:17N 37°11' E 004°27'5511.5
2014-Jul-25 00:31N 37°04' E 003°19'1210.9
2014-Jul-24 23:26N 37°02' E 003°04'1011.2
2014-Jul-24 22:33N 37°01' E 002°52'1211.5
2014-Jul-24 21:33N 36°59' E 002°38'1111.0
2014-Jul-24 20:33N 36°56' E 002°25'1111.0
2014-Jul-24 19:33N 36°53' E 002°11'1110.7
2014-Jul-24 18:33N 36°52' E 001°58'1110.6
2014-Jul-24 17:33N 36°50' E 001°45'1110.9
2014-Jul-24 16:33N 36°48' E 001°31'1110.9
2014-Jul-24 15:33N 36°47' E 001°18'1210.9
2014-Jul-24 14:27N 36°45' E 001°03'1010.8
2014-Jul-24 13:34N 36°44' E 000°51'1211.1
2014-Jul-24 12:31N 36°42' E 000°37'1111.3
2014-Jul-24 11:32N 36°40' E 000°23'1110.9
2014-Jul-24 10:33N 36°39' E 000°10'1510.8
2014-Jul-24 09:12N 36°37' W 000°08'1211.0
2014-Jul-24 08:08N 36°35' W 000°22'711.3
2014-Jul-24 07:29N 36°34' W 000°32'1011.2
2014-Jul-24 06:32N 36°32' W 000°44'1311.0
2014-Jul-24 05:22N 36°30' W 001°01'1410.9
2014-Jul-24 04:05N 36°28' W 001°18'19511.1
2014-Jul-23 10:33N 35°59' W 005°17'4510.7
2014-Jul-23 06:24N 35°55' W 006°11'3410.6
2014-Jul-23 03:09N 36°03' W 006°53'610.2
2014-Jul-23 02:33N 36°04' W 006°60'1010.0
2014-Jul-23 01:33N 36°07' W 007°12'1010.2
2014-Jul-23 00:32N 36°10' W 007°24'1010.4
2014-Jul-22 23:33N 36°12' W 007°36'1110.6
2014-Jul-22 22:33N 36°15' W 007°49'1010.2
2014-Jul-22 21:33N 36°18' W 008°01'1110.6
2014-Jul-22 20:33N 36°21' W 008°14'1110.7
2014-Jul-22 19:33N 36°23' W 008°27'1110.6
2014-Jul-22 18:33N 36°26' W 008°40'1110.6
2014-Jul-22 17:33N 36°29' W 008°52'1110.6
2014-Jul-22 16:33N 36°32' W 009°05'1110.7
2014-Jul-22 15:33N 36°35' W 009°18'1110.8
2014-Jul-22 14:33N 36°43' W 009°27'1110.6
2014-Jul-22 13:33N 36°53' W 009°33'1110.9
2014-Jul-22 12:33N 37°03' W 009°36'1110.5
2014-Jul-22 11:33N 37°13' W 009°40'1110.8
2014-Jul-22 10:33N 37°24' W 009°43'1110.8
2014-Jul-22 09:33N 37°34' W 009°46'1110.8
2014-Jul-22 08:33N 37°45' W 009°49'1110.7
2014-Jul-22 07:33N 37°55' W 009°52'1010.5
2014-Jul-22 06:33N 38°05' W 009°55'1111.1
2014-Jul-22 05:33N 38°16' W 009°58'1110.7
2014-Jul-22 04:31N 38°27' W 010°01'1010.5
2014-Jul-22 03:31N 38°37' W 010°04'1110.9
2014-Jul-22 02:32N 38°48' W 010°05'1111.1
2014-Jul-22 01:31N 38°59' W 010°05'  
Track history (hours):
 
Tides and Currents Weather Stations Pressure Air Temp Water Temp Dewpoint Dewpoint Depression Visibility Wind Speed Wind Dir Waves Ship Positions

Sinegorsk

Last reported at 2014-Jul-29 22:31 UTC. Time now 2014-Jul-30 09:16 UTC.
Position N 32°10' E 027°16'.

Length 133 m; draft 8.2 m.

Type: Cargo ship. MMSI: 576292000.

Date/timePositionNaut miles runAvg speedWind from/ knotsBaromVisibWave heightAir tempDewpointWater temp
2014-Jul-29 22:31N 32°10' E 027°16'1010.1
2014-Jul-29 21:29N 32°14' E 027°05'1110.0
2014-Jul-29 20:22N 32°18' E 026°52'810.2
2014-Jul-29 19:33N 32°21' E 026°43'12 9.9
2014-Jul-29 18:21N 32°26' E 026°30'810.0
2014-Jul-29 17:32N 32°29' E 026°21'1010.2
2014-Jul-29 16:33N 32°33' E 026°10'1310.5
2014-Jul-29 15:20N 32°38' E 025°57'2310.7
2014-Jul-29 13:11N 32°47' E 025°32'2110.5
2014-Jul-29 11:12N 32°56' E 025°09'1911.0
2014-Jul-29 09:28N 33°03' E 024°48'18410.7
2014-Jul-28 16:15N 34°14' E 021°25'315 9.8
2014-Jul-27 08:06N 36°02' E 015°23'5 9.8
2014-Jul-27 07:33N 36°04' E 015°17'10 9.8
2014-Jul-27 06:33N 36°07' E 015°05'1110.3
2014-Jul-27 05:32N 36°11' E 014°53'1010.6
2014-Jul-27 04:33N 36°14' E 014°41'1110.5
2014-Jul-27 03:33N 36°18' E 014°29'1010.4
2014-Jul-27 02:33N 36°21' E 014°17'1110.3
2014-Jul-27 01:31N 36°25' E 014°04'1010.4
2014-Jul-27 00:32N 36°29' E 013°52'1210.4
2014-Jul-26 23:24N 36°33' E 013°38'2010.6
2014-Jul-26 21:33N 36°39' E 013°15'3411.2
2014-Jul-26 18:30N 36°52' E 012°36'1011.1
2014-Jul-26 17:33N 36°56' E 012°24'1210.8
2014-Jul-26 16:25N 37°01' E 012°10'7210.5
2014-Jul-26 09:32N 37°27' E 010°46'1611.1
2014-Jul-26 08:06N 37°31' E 010°26'3411.2
2014-Jul-26 05:04N 37°31' E 009°43'510.7
2014-Jul-26 04:33N 37°29' E 009°37'1110.6
2014-Jul-26 03:29N 37°26' E 009°23'1010.7
2014-Jul-26 02:33N 37°24' E 009°11'4210.5
2014-Jul-25 22:33N 37°18' E 008°18'1110.6
2014-Jul-25 21:33N 37°18' E 008°05'2210.5
2014-Jul-25 19:25N 37°18' E 007°37'2010.5
2014-Jul-25 17:33N 37°17' E 007°12'1410.1
2014-Jul-25 16:09N 37°18' E 006°54'610.0
2014-Jul-25 15:33N 37°18' E 006°47'2310.5
2014-Jul-25 13:23N 37°17' E 006°18'1111.0
2014-Jul-25 12:21N 37°17' E 006°04'911.3
2014-Jul-25 11:33N 37°16' E 005°52'6810.9
2014-Jul-25 05:17N 37°11' E 004°27'5511.5
2014-Jul-25 00:31N 37°04' E 003°19'1210.9
2014-Jul-24 23:26N 37°02' E 003°04'1011.2
2014-Jul-24 22:33N 37°01' E 002°52'1211.5
2014-Jul-24 21:33N 36°59' E 002°38'1111.0
2014-Jul-24 20:33N 36°56' E 002°25'1111.0
2014-Jul-24 19:33N 36°53' E 002°11'1110.7
2014-Jul-24 18:33N 36°52' E 001°58'1110.6
2014-Jul-24 17:33N 36°50' E 001°45'1110.9
2014-Jul-24 16:33N 36°48' E 001°31'1110.9
2014-Jul-24 15:33N 36°47' E 001°18'1210.9
2014-Jul-24 14:27N 36°45' E 001°03'1010.8
2014-Jul-24 13:34N 36°44' E 000°51'1211.1
2014-Jul-24 12:31N 36°42' E 000°37'1111.3
2014-Jul-24 11:32N 36°40' E 000°23'1110.9
2014-Jul-24 10:33N 36°39' E 000°10'1510.8
2014-Jul-24 09:12N 36°37' W 000°08'1211.0
2014-Jul-24 08:08N 36°35' W 000°22'711.3
2014-Jul-24 07:29N 36°34' W 000°32'1011.2
2014-Jul-24 06:32N 36°32' W 000°44'1311.0
2014-Jul-24 05:22N 36°30' W 001°01'1410.9
2014-Jul-24 04:05N 36°28' W 001°18'19511.1
2014-Jul-23 10:33N 35°59' W 005°17'4510.7
2014-Jul-23 06:24N 35°55' W 006°11'3410.6
2014-Jul-23 03:09N 36°03' W 006°53'610.2
2014-Jul-23 02:33N 36°04' W 006°60'1010.0
2014-Jul-23 01:33N 36°07' W 007°12'1010.2
2014-Jul-23 00:32N 36°10' W 007°24'1010.4
2014-Jul-22 23:33N 36°12' W 007°36'1110.6
2014-Jul-22 22:33N 36°15' W 007°49'1010.2
2014-Jul-22 21:33N 36°18' W 008°01'1110.6
2014-Jul-22 20:33N 36°21' W 008°14'1110.7
2014-Jul-22 19:33N 36°23' W 008°27'1110.6
2014-Jul-22 18:33N 36°26' W 008°40'1110.6
2014-Jul-22 17:33N 36°29' W 008°52'1110.6
2014-Jul-22 16:33N 36°32' W 009°05'1110.7
2014-Jul-22 15:33N 36°35' W 009°18'1110.8
2014-Jul-22 14:33N 36°43' W 009°27'1110.6
2014-Jul-22 13:33N 36°53' W 009°33'1110.9
2014-Jul-22 12:33N 37°03' W 009°36'1110.5
2014-Jul-22 11:33N 37°13' W 009°40'1110.8
2014-Jul-22 10:33N 37°24' W 009°43'1110.8
2014-Jul-22 09:33N 37°34' W 009°46'1110.8
2014-Jul-22 08:33N 37°45' W 009°49'1110.7
2014-Jul-22 07:33N 37°55' W 009°52'1010.5
2014-Jul-22 06:33N 38°05' W 009°55'1111.1
2014-Jul-22 05:33N 38°16' W 009°58'1110.7
2014-Jul-22 04:31N 38°27' W 010°01'1010.5
2014-Jul-22 03:31N 38°37' W 010°04'1110.9
2014-Jul-22 02:32N 38°48' W 010°05'1111.1
2014-Jul-22 01:31N 38°59' W 010°05'  

Dump ship's entire track history